Time;durP1;ratioP1;P1;durP2;ratioP2;P2;SDS_P1;SDS_P2;PMS_P1;PMS_P2;Temp;Humidity;BMP_temperature;BMP_pressure;BME280_temperature;BME280_humidity;BME280_pressure;Samples;Min_cycle;Max_cycle;Signal;HPM_P1;HPM_P2
2022/07/28 00:01:37;;;;;;;0.20;0.20;;;16.80;99.90;;;;;;5067958;28;20210;-80
2022/07/28 00:04:03;;;;;;;0.23;0.23;;;16.70;99.90;;;;;;5064717;28;20185;-79
2022/07/28 00:06:28;;;;;;;0.27;0.27;;;16.70;99.90;;;;;;5071354;28;20200;-80
2022/07/28 00:08:54;;;;;;;0.10;0.10;;;16.70;99.90;;;;;;5069233;28;20715;-80
2022/07/28 00:11:19;;;;;;;0.20;0.20;;;16.70;99.90;;;;;;5073199;28;20222;-79
2022/07/28 00:13:45;;;;;;;0.10;0.10;;;16.70;99.90;;;;;;5067743;28;20199;-80
2022/07/28 00:16:10;;;;;;;4.13;0.33;;;16.80;99.90;;;;;;5071433;28;20265;-80
2022/07/28 00:18:36;;;;;;;0.10;0.10;;;16.80;99.90;;;;;;5070141;28;20220;-80
2022/07/28 00:21:03;;;;;;;0.10;0.10;;;16.70;99.90;;;;;;5065667;28;20198;-79
2022/07/28 00:23:28;;;;;;;0.20;0.20;;;16.70;99.90;;;;;;5063923;28;20181;-80
2022/07/28 00:25:54;;;;;;;0.10;0.10;;;16.70;99.90;;;;;;5068694;28;20189;-80
2022/07/28 00:28:19;;;;;;;0.10;0.10;;;16.70;99.90;;;;;;5073068;28;20617;-80
2022/07/28 00:30:45;;;;;;;0.10;0.10;;;16.70;99.90;;;;;;5066457;28;20208;-79
2022/07/28 00:33:10;;;;;;;0.30;0.20;;;16.70;99.90;;;;;;5063755;28;20188;-80
2022/07/28 00:35:36;;;;;;;0.43;0.43;;;16.80;99.90;;;;;;5068713;28;20234;-79
2022/07/28 00:38:01;;;;;;;0.10;0.10;;;16.80;99.90;;;;;;5070489;28;20588;-80
2022/07/28 00:43:12;;;;;;;0.20;0.20;;;16.80;99.90;;;;;;5066801;28;20180;-80
2022/07/28 00:45:38;;;;;;;0.37;0.37;;;16.80;99.90;;;;;;5068939;28;20169;-80
2022/07/28 00:48:03;;;;;;;0.30;0.30;;;16.80;99.90;;;;;;5062163;28;20188;-79
2022/07/28 00:50:29;;;;;;;0.10;0.10;;;16.80;99.90;;;;;;5061652;28;20682;-80
2022/07/28 00:52:55;;;;;;;0.50;0.50;;;16.70;99.90;;;;;;5063358;28;20691;-79
2022/07/28 00:55:22;;;;;;;0.67;0.30;;;16.70;99.90;;;;;;5062675;28;20629;-80
2022/07/28 00:57:47;;;;;;;0.23;0.23;;;16.70;99.90;;;;;;5067126;28;20629;-80
2022/07/28 01:00:13;;;;;;;0.23;0.10;;;16.70;99.90;;;;;;5069871;28;20202;-79
2022/07/28 01:02:39;;;;;;;0.10;0.10;;;16.60;99.90;;;;;;5068048;28;20209;-80
2022/07/28 01:05:05;;;;;;;0.40;0.40;;;16.70;99.90;;;;;;5061076;28;20211;-80
2022/07/28 01:08:00;;;;;;;4.50;0.30;;;16.70;99.90;;;;;;5061472;28;20243;-80
2022/07/28 01:10:45;;;;;;;0.30;0.30;;;16.70;99.90;;;;;;5067146;28;20199;-80
2022/07/28 01:13:48;;;;;;;0.10;0.10;;;16.70;99.90;;;;;;5065952;28;20223;-79
2022/07/28 01:16:14;;;;;;;0.10;0.10;;;16.60;99.90;;;;;;5064466;28;20209;-80
2022/07/28 01:19:03;;;;;;;0.20;0.20;;;16.60;99.90;;;;;;5064265;28;20582;-79
2022/07/28 01:21:33;;;;;;;0.33;0.33;;;16.60;99.90;;;;;;5065342;28;20214;-80
2022/07/28 01:24:12;;;;;;;0.10;0.10;;;16.60;99.90;;;;;;5065020;28;20192;-79
2022/07/28 01:26:52;;;;;;;0.10;0.10;;;16.60;99.90;;;;;;5068488;28;20180;-79
2022/07/28 01:29:42;;;;;;;0.30;0.30;;;16.60;99.90;;;;;;5065699;28;20209;-79
2022/07/28 01:32:15;;;;;;;0.00;0.00;;;16.70;99.90;;;;;;5063398;28;20184;-80
2022/07/28 01:34:56;;;;;;;0.67;0.37;;;16.60;99.90;;;;;;5070305;28;20658;-79
2022/07/28 01:37:28;;;;;;;0.10;0.10;;;16.60;99.90;;;;;;5063031;28;20188;-79
2022/07/28 01:39:57;;;;;;;0.40;0.40;;;16.70;99.90;;;;;;5061851;28;20188;-80
2022/07/28 01:42:27;;;;;;;0.10;0.10;;;16.60;99.90;;;;;;5083457;28;20204;-79
2022/07/28 01:44:56;;;;;;;0.10;0.10;;;16.70;99.90;;;;;;5068125;28;20226;-80
2022/07/28 01:47:24;;;;;;;0.37;0.37;;;16.70;99.90;;;;;;5063026;28;20177;-80
2022/07/28 01:49:52;;;;;;;0.40;0.40;;;16.70;99.90;;;;;;5066056;28;20311;-80
2022/07/28 01:52:18;;;;;;;0.20;0.20;;;16.70;99.90;;;;;;5076697;28;20184;-80
2022/07/28 01:54:46;;;;;;;0.60;0.43;;;16.60;99.90;;;;;;5058669;28;20220;-79
2022/07/28 01:57:13;;;;;;;0.30;0.30;;;16.60;99.90;;;;;;5064960;28;22187;-79
2022/07/28 01:59:39;;;;;;;0.10;0.10;;;16.60;99.90;;;;;;5069211;28;20177;-80
2022/07/28 02:02:07;;;;;;;0.30;0.30;;;16.60;99.90;;;;;;5066564;28;20212;-79
2022/07/28 02:04:37;;;;;;;0.33;0.20;;;16.60;99.90;;;;;;5068122;28;20184;-79
2022/07/28 02:07:04;;;;;;;0.30;0.10;;;16.50;99.90;;;;;;5066912;28;20231;-79
2022/07/28 02:09:31;;;;;;;0.27;0.27;;;16.50;99.90;;;;;;5069663;28;20188;-80
2022/07/28 02:11:58;;;;;;;0.70;0.30;;;16.50;99.90;;;;;;5066913;28;20203;-79
2022/07/28 02:14:26;;;;;;;0.10;0.10;;;16.60;99.90;;;;;;5066769;28;20260;-79
2022/07/28 02:16:56;;;;;;;0.53;0.30;;;16.50;99.90;;;;;;5065744;28;20620;-80
2022/07/28 02:19:22;;;;;;;0.10;0.10;;;16.50;99.90;;;;;;5063299;28;20185;-80
2022/07/28 02:21:50;;;;;;;0.57;0.20;;;16.50;99.90;;;;;;5066427;28;20527;-80
2022/07/28 02:24:22;;;;;;;0.20;0.20;;;16.50;99.90;;;;;;5061853;28;20180;-79
2022/07/28 02:27:00;;;;;;;0.10;0.10;;;16.50;99.90;;;;;;5068292;28;20180;-80
2022/07/28 02:29:27;;;;;;;0.10;0.10;;;16.50;99.90;;;;;;5064349;28;20186;-79
2022/07/28 02:32:01;;;;;;;0.73;0.73;;;16.40;99.90;;;;;;5064802;28;20230;-80
2022/07/28 02:34:27;;;;;;;0.97;0.70;;;16.40;99.90;;;;;;5066045;28;20184;-80
2022/07/28 02:36:59;;;;;;;0.10;0.10;;;16.40;99.90;;;;;;5083551;28;20184;-80
2022/07/28 02:39:31;;;;;;;0.10;0.10;;;16.40;99.90;;;;;;5063595;28;20271;-79
2022/07/28 02:42:14;;;;;;;0.20;0.20;;;16.40;99.90;;;;;;5064642;28;20295;-79
2022/07/28 02:44:47;;;;;;;0.10;0.10;;;16.40;99.90;;;;;;5067083;28;20297;-79
2022/07/28 02:47:17;;;;;;;0.20;0.20;;;16.40;99.90;;;;;;5063818;28;20182;-80
2022/07/28 02:49:45;;;;;;;0.10;0.10;;;16.40;99.90;;;;;;5055213;28;20262;-80
2022/07/28 02:52:12;;;;;;;3.10;2.20;;;16.40;99.90;;;;;;5057771;28;20185;-79
2022/07/28 02:54:39;;;;;;;0.20;0.20;;;16.40;99.90;;;;;;5061351;28;20219;-79
2022/07/28 02:57:06;;;;;;;0.10;0.10;;;16.50;99.90;;;;;;5067831;28;20214;-79
2022/07/28 02:59:34;;;;;;;0.20;0.20;;;16.40;99.90;;;;;;5068274;28;20227;-79
2022/07/28 03:01:59;;;;;;;0.10;0.10;;;16.50;99.90;;;;;;5065938;28;20328;-79
2022/07/28 03:07:09;;;;;;;0.13;0.13;;;16.50;99.90;;;;;;5062135;28;20540;-80
2022/07/28 03:09:54;;;;;;;0.10;0.10;;;16.50;99.90;;;;;;5063589;28;20263;-80
2022/07/28 03:12:19;;;;;;;0.20;0.20;;;16.50;99.90;;;;;;5069479;28;20208;-80
2022/07/28 03:14:45;;;;;;;0.20;0.20;;;16.50;99.90;;;;;;5064374;28;20214;-79
2022/07/28 03:17:10;;;;;;;4.03;0.47;;;16.50;99.90;;;;;;5063695;28;20188;-81
2022/07/28 03:19:36;;;;;;;0.20;0.20;;;16.50;99.90;;;;;;5063169;28;20526;-79
2022/07/28 03:22:02;;;;;;;0.20;0.20;;;16.50;99.90;;;;;;5068504;28;20216;-79
2022/07/28 03:24:32;;;;;;;0.20;0.20;;;16.60;99.90;;;;;;5068940;28;20517;-80
2022/07/28 03:27:20;;;;;;;0.47;0.23;;;16.60;99.90;;;;;;5064790;28;20185;-80
2022/07/28 03:29:49;;;;;;;1.13;0.20;;;16.70;99.90;;;;;;5071413;28;20753;-79
2022/07/28 03:32:19;;;;;;;0.10;0.10;;;16.70;99.90;;;;;;5071813;28;20192;-80
2022/07/28 03:34:45;;;;;;;0.40;0.40;;;16.80;99.90;;;;;;5070576;28;20250;-79
2022/07/28 03:37:13;;;;;;;0.10;0.10;;;16.90;99.90;;;;;;5070653;28;20177;-80
2022/07/28 03:39:45;;;;;;;0.20;0.20;;;17.00;99.90;;;;;;5070496;28;20215;-80
2022/07/28 03:42:12;;;;;;;0.10;0.10;;;17.00;99.90;;;;;;5069081;28;20215;-80
2022/07/28 03:44:39;;;;;;;0.27;0.27;;;17.10;99.90;;;;;;5070070;28;20194;-80
2022/07/28 03:47:05;;;;;;;0.10;0.10;;;17.20;99.90;;;;;;5069127;28;20181;-80
2022/07/28 03:49:31;;;;;;;0.20;0.20;;;17.20;99.90;;;;;;5061600;28;20224;-80
2022/07/28 03:51:56;;;;;;;0.10;0.10;;;17.30;99.90;;;;;;5072350;28;20317;-80
2022/07/28 03:54:22;;;;;;;0.10;0.10;;;17.30;99.90;;;;;;5071699;28;20188;-80
2022/07/28 03:56:47;;;;;;;0.10;0.10;;;17.40;99.90;;;;;;5065436;28;20226;-79
2022/07/28 03:59:13;;;;;;;0.27;0.27;;;17.30;99.90;;;;;;5061826;28;20185;-80
2022/07/28 04:01:38;;;;;;;0.17;0.17;;;17.40;99.90;;;;;;5069157;28;20212;-80
2022/07/28 04:04:04;;;;;;;0.27;0.27;;;17.40;99.90;;;;;;5066436;28;20639;-80
2022/07/28 04:06:30;;;;;;;0.23;0.23;;;17.40;99.90;;;;;;5070862;28;20216;-80
2022/07/28 04:08:55;;;;;;;0.20;0.20;;;17.40;99.90;;;;;;5062374;28;20276;-78
2022/07/28 04:11:21;;;;;;;0.10;0.10;;;17.20;99.90;;;;;;5066357;28;20257;-79
2022/07/28 04:13:46;;;;;;;0.20;0.20;;;17.30;99.90;;;;;;5070580;28;20677;-79
2022/07/28 04:16:12;;;;;;;0.20;0.20;;;17.40;99.90;;;;;;5069672;28;20247;-79
2022/07/28 04:18:37;;;;;;;0.10;0.10;;;17.50;99.90;;;;;;5067687;28;20212;-79
2022/07/28 04:21:03;;;;;;;0.40;0.40;;;17.60;99.90;;;;;;5066427;28;20289;-78
2022/07/28 04:23:29;;;;;;;0.10;0.10;;;17.60;99.90;;;;;;5069507;28;20185;-80
2022/07/28 04:25:55;;;;;;;0.10;0.10;;;17.70;99.90;;;;;;5068670;28;20492;-79
2022/07/28 04:28:20;;;;;;;0.10;0.10;;;17.70;99.90;;;;;;5067418;28;20643;-79
2022/07/28 04:30:46;;;;;;;0.27;0.27;;;17.70;99.90;;;;;;5069089;28;20215;-79
2022/07/28 04:33:12;;;;;;;0.10;0.10;;;17.60;99.90;;;;;;5060304;28;20263;-79
2022/07/28 04:35:38;;;;;;;1.50;0.40;;;17.60;99.90;;;;;;5066117;28;20189;-79
2022/07/28 04:38:04;;;;;;;0.10;0.10;;;17.50;99.90;;;;;;5064679;28;20200;-79
2022/07/28 04:40:29;;;;;;;0.53;0.53;;;17.50;99.90;;;;;;5058324;28;20382;-79
2022/07/28 04:42:55;;;;;;;0.20;0.20;;;17.40;99.90;;;;;;5063483;28;20185;-79
2022/07/28 04:45:20;;;;;;;0.13;0.13;;;17.50;99.90;;;;;;5063556;28;20179;-80
2022/07/28 04:47:46;;;;;;;0.30;0.30;;;17.50;99.90;;;;;;5070538;28;20192;-80
2022/07/28 04:50:14;;;;;;;0.30;0.20;;;17.40;99.90;;;;;;5060415;28;20750;-79
2022/07/28 04:52:40;;;;;;;0.10;0.10;;;17.40;99.90;;;;;;5062759;28;20668;-80
2022/07/28 04:55:07;;;;;;;0.83;0.20;;;17.50;99.90;;;;;;5068350;28;20646;-80
2022/07/28 04:57:32;;;;;;;0.20;0.20;;;17.60;99.90;;;;;;5054880;28;20575;-80
2022/07/28 04:59:59;;;;;;;0.10;0.10;;;17.40;99.90;;;;;;5065197;28;20188;-80
2022/07/28 05:02:25;;;;;;;0.20;0.20;;;17.50;99.90;;;;;;5065171;28;20201;-79
2022/07/28 05:04:51;;;;;;;0.10;0.10;;;17.60;99.90;;;;;;5066701;28;20181;-80
2022/07/28 05:07:17;;;;;;;0.10;0.10;;;17.60;99.90;;;;;;5065243;28;20205;-80
2022/07/28 05:09:43;;;;;;;0.10;0.10;;;17.60;99.90;;;;;;5070688;28;20611;-80
2022/07/28 05:12:09;;;;;;;0.20;0.20;;;17.60;99.90;;;;;;5065340;28;20209;-79
2022/07/28 05:14:34;;;;;;;0.20;0.20;;;17.50;99.90;;;;;;5069768;28;20208;-80
2022/07/28 05:17:00;;;;;;;0.37;0.37;;;17.50;99.90;;;;;;5066423;28;20177;-80
2022/07/28 05:19:25;;;;;;;0.10;0.10;;;17.50;99.90;;;;;;5077244;28;20252;-81
2022/07/28 05:21:51;;;;;;;0.47;0.20;;;17.50;99.90;;;;;;5067442;28;20288;-81
2022/07/28 05:24:16;;;;;;;0.20;0.20;;;17.50;99.90;;;;;;5066268;28;20676;-80
2022/07/28 05:26:42;;;;;;;0.10;0.10;;;17.60;99.90;;;;;;5061701;28;20273;-79
2022/07/28 05:29:07;;;;;;;0.20;0.20;;;17.60;99.90;;;;;;5067320;28;20210;-79
2022/07/28 05:31:33;;;;;;;0.40;0.40;;;17.60;99.90;;;;;;5067186;28;20215;-79
2022/07/28 05:33:59;;;;;;;0.30;0.30;;;17.60;99.90;;;;;;5065948;28;20199;-79
2022/07/28 05:36:25;;;;;;;0.20;0.20;;;17.60;99.90;;;;;;5070122;28;20282;-79
2022/07/28 05:38:50;;;;;;;0.20;0.20;;;17.70;99.90;;;;;;5069209;28;20212;-79
2022/07/28 05:41:16;;;;;;;0.20;0.20;;;17.70;99.90;;;;;;5069431;28;20247;-78
2022/07/28 05:43:42;;;;;;;6.70;0.30;;;17.70;99.90;;;;;;5070108;28;20570;-79
2022/07/28 05:46:07;;;;;;;0.20;0.20;;;17.70;99.90;;;;;;5067050;28;20188;-79
2022/07/28 05:48:33;;;;;;;0.17;0.17;;;17.70;99.90;;;;;;5066052;28;20200;-79
2022/07/28 05:50:58;;;;;;;0.40;0.40;;;17.80;99.90;;;;;;5069066;28;20211;-79
2022/07/28 05:53:24;;;;;;;0.20;0.20;;;17.90;99.90;;;;;;5068982;28;20752;-79
2022/07/28 05:55:50;;;;;;;0.40;0.40;;;18.00;99.90;;;;;;5069385;28;20632;-81
2022/07/28 05:58:19;;;;;;;0.30;0.20;;;18.10;99.90;;;;;;5068389;28;20192;-79
2022/07/28 06:00:44;;;;;;;0.30;0.30;;;18.20;99.90;;;;;;5064959;28;20303;-79
2022/07/28 06:03:10;;;;;;;0.20;0.20;;;18.20;99.90;;;;;;5069865;28;20275;-79
2022/07/28 06:05:36;;;;;;;0.30;0.30;;;18.40;99.90;;;;;;5071316;28;20176;-79
2022/07/28 06:08:01;;;;;;;1.03;1.03;;;18.70;99.90;;;;;;5066948;28;20182;-79
2022/07/28 06:10:57;;;;;;;0.20;0.20;;;18.80;99.90;;;;;;5067726;28;20209;-79
2022/07/28 06:13:17;;;;;;;0.20;0.20;;;19.10;99.90;;;;;;5066869;28;20660;-80
2022/07/28 06:15:45;;;;;;;0.17;0.17;;;19.20;99.90;;;;;;5067081;28;20648;-79
2022/07/28 06:18:11;;;;;;;0.30;0.30;;;19.50;99.90;;;;;;5066773;28;20210;-79
2022/07/28 06:20:37;;;;;;;0.20;0.20;;;19.50;99.90;;;;;;5070810;28;20255;-79
2022/07/28 06:23:02;;;;;;;0.20;0.20;;;19.40;99.90;;;;;;5068441;28;20239;-80
2022/07/28 06:25:28;;;;;;;0.20;0.20;;;19.70;99.90;;;;;;5060917;28;20186;-79
2022/07/28 06:27:56;;;;;;;0.30;0.30;;;20.00;99.90;;;;;;5068288;28;20266;-79
2022/07/28 06:30:22;;;;;;;0.10;0.10;;;19.90;99.90;;;;;;5064495;28;20220;-79
2022/07/28 06:32:48;;;;;;;0.20;0.20;;;20.00;99.90;;;;;;5060507;28;20662;-79
2022/07/28 06:35:15;;;;;;;0.27;0.27;;;20.40;99.90;;;;;;5064098;28;20193;-79
2022/07/28 06:37:45;;;;;;;0.30;0.30;;;20.50;99.90;;;;;;5066610;28;20661;-79
2022/07/28 06:40:11;;;;;;;0.30;0.30;;;20.50;99.90;;;;;;5061751;28;20343;-79
2022/07/28 06:42:38;;;;;;;0.40;0.27;;;20.50;99.90;;;;;;5064409;28;20190;-80
2022/07/28 06:45:05;;;;;;;1.63;1.53;;;20.40;99.90;;;;;;5067612;28;20181;-79
2022/07/28 06:47:31;;;;;;;0.20;0.20;;;20.70;99.90;;;;;;5069775;28;20189;-79
2022/07/28 06:49:56;;;;;;;0.10;0.10;;;20.60;99.90;;;;;;5065971;28;20250;-79
2022/07/28 06:52:22;;;;;;;0.30;0.30;;;20.50;99.90;;;;;;5064539;28;20184;-79
2022/07/28 06:54:50;;;;;;;1.90;0.30;;;20.70;99.90;;;;;;5062565;28;20193;-80
2022/07/28 06:57:16;;;;;;;0.47;0.47;;;21.00;99.90;;;;;;5067580;28;20549;-80
2022/07/28 06:59:42;;;;;;;0.30;0.30;;;21.00;99.90;;;;;;5068322;28;20263;-79
2022/07/28 07:02:07;;;;;;;0.40;0.40;;;20.80;99.90;;;;;;5070040;28;20295;-79
2022/07/28 07:04:33;;;;;;;0.30;0.30;;;20.30;99.90;;;;;;5071061;28;20662;-79
2022/07/28 07:06:59;;;;;;;0.97;0.57;;;20.30;99.90;;;;;;5062140;28;20234;-79
2022/07/28 07:09:24;;;;;;;0.30;0.30;;;20.40;99.90;;;;;;5069988;28;20746;-79
2022/07/28 07:11:50;;;;;;;0.37;0.37;;;20.50;99.90;;;;;;5073343;28;20213;-80
2022/07/28 07:14:15;;;;;;;0.97;0.53;;;20.40;99.90;;;;;;5072411;28;20193;-79
2022/07/28 07:16:41;;;;;;;0.47;0.47;;;20.30;99.90;;;;;;5072110;28;20201;-79
2022/07/28 07:19:07;;;;;;;0.20;0.20;;;20.40;99.90;;;;;;5063565;28;20249;-79
2022/07/28 07:21:32;;;;;;;0.20;0.20;;;20.80;99.90;;;;;;5064452;28;20216;-79
2022/07/28 07:23:58;;;;;;;0.50;0.40;;;21.20;99.90;;;;;;5063796;28;20241;-79
2022/07/28 07:26:24;;;;;;;0.40;0.30;;;20.70;99.90;;;;;;5066676;28;20320;-79
2022/07/28 07:28:50;;;;;;;0.20;0.20;;;20.90;99.90;;;;;;5089077;28;20666;-79
2022/07/28 07:31:15;;;;;;;0.27;0.27;;;21.30;99.90;;;;;;5071378;28;20239;-79
2022/07/28 07:33:41;;;;;;;0.20;0.20;;;21.10;99.90;;;;;;5073678;28;20686;-79
2022/07/28 07:36:07;;;;;;;0.40;0.40;;;21.10;99.90;;;;;;5074990;28;20676;-79
2022/07/28 07:38:32;;;;;;;0.20;0.20;;;20.90;99.90;;;;;;5066910;28;20197;-79
2022/07/28 07:40:58;;;;;;;1.50;0.70;;;21.20;99.90;;;;;;5070610;28;20215;-79
2022/07/28 07:43:24;;;;;;;0.30;0.30;;;21.40;99.90;;;;;;5086145;28;20189;-79
2022/07/28 07:45:49;;;;;;;0.30;0.30;;;21.50;99.90;;;;;;5069162;28;20201;-79
2022/07/28 07:48:15;;;;;;;0.30;0.30;;;21.60;99.90;;;;;;5068051;28;20672;-79
2022/07/28 07:50:40;;;;;;;0.27;0.27;;;21.40;99.90;;;;;;5065614;28;20205;-79
2022/07/28 07:53:07;;;;;;;1.07;0.37;;;21.50;99.90;;;;;;5071348;28;20181;-80
2022/07/28 07:55:32;;;;;;;0.63;0.63;;;21.40;99.90;;;;;;5067960;28;20189;-80
2022/07/28 07:57:58;;;;;;;0.40;0.40;;;21.30;99.90;;;;;;5061562;28;20601;-80
2022/07/28 08:00:24;;;;;;;0.33;0.33;;;21.80;99.90;;;;;;5090629;28;20254;-79
2022/07/28 08:02:49;;;;;;;0.83;0.83;;;22.00;99.90;;;;;;5070069;28;20670;-79
2022/07/28 08:05:16;;;;;;;0.40;0.40;;;21.70;99.90;;;;;;5067540;28;20711;-80
2022/07/28 08:07:42;;;;;;;0.50;0.50;;;21.70;99.90;;;;;;5072759;28;20194;-79
2022/07/28 08:10:07;;;;;;;0.43;0.43;;;22.10;99.90;;;;;;5073460;28;20284;-79
2022/07/28 08:12:33;;;;;;;0.30;0.30;;;21.50;99.90;;;;;;5072056;28;20211;-79
2022/07/28 08:14:59;;;;;;;0.30;0.30;;;21.60;99.90;;;;;;5073186;28;20660;-79
2022/07/28 08:17:25;;;;;;;0.60;0.60;;;21.80;99.90;;;;;;5075015;28;20180;-79
2022/07/28 08:19:50;;;;;;;1.07;1.07;;;21.80;99.90;;;;;;5071184;28;20187;-79
2022/07/28 08:22:16;;;;;;;0.63;0.63;;;21.90;99.90;;;;;;5075941;28;20196;-79
2022/07/28 08:24:42;;;;;;;1.07;0.50;;;22.20;99.90;;;;;;5063985;28;20181;-80
2022/07/28 08:27:07;;;;;;;0.40;0.33;;;22.70;99.90;;;;;;5075014;28;20177;-80
2022/07/28 08:29:33;;;;;;;0.40;0.40;;;23.10;99.90;;;;;;5070303;28;20230;-79
2022/07/28 08:32:02;;;;;;;0.73;0.60;;;22.90;99.90;;;;;;5074688;28;20209;-79
2022/07/28 08:34:28;;;;;;;0.40;0.40;;;22.60;99.90;;;;;;5068969;28;20658;-80
2022/07/28 08:36:54;;;;;;;0.50;0.30;;;22.50;99.90;;;;;;5074847;28;20185;-79
2022/07/28 08:39:19;;;;;;;0.63;0.63;;;22.80;99.90;;;;;;5070279;28;20677;-79
2022/07/28 08:42:10;;;;;;;0.53;0.53;;;22.50;99.90;;;;;;5069358;28;20688;-80
2022/07/28 08:44:53;;;;;;;0.40;0.40;;;22.30;99.90;;;;;;5062815;28;20184;-79
2022/07/28 08:47:20;;;;;;;0.23;0.23;;;22.80;99.90;;;;;;5069377;28;20200;-80
2022/07/28 08:49:47;;;;;;;1.10;0.77;;;23.00;99.90;;;;;;5065803;28;20228;-79
2022/07/28 08:52:13;;;;;;;0.70;0.70;;;22.90;99.90;;;;;;5068624;28;20649;-80
2022/07/28 08:54:47;;;;;;;0.30;0.30;;;22.80;99.90;;;;;;5065883;28;20545;-79
2022/07/28 08:57:19;;;;;;;0.40;0.40;;;23.40;99.90;;;;;;5083323;28;20193;-79
2022/07/28 08:59:47;;;;;;;0.30;0.30;;;24.00;99.90;;;;;;5074236;28;20181;-79
2022/07/28 09:02:14;;;;;;;0.43;0.30;;;23.90;99.90;;;;;;5064740;28;20682;-79
2022/07/28 09:04:41;;;;;;;0.40;0.40;;;24.10;99.90;;;;;;5067651;28;20182;-83
2022/07/28 09:07:07;;;;;;;0.20;0.20;;;24.10;99.90;;;;;;5062854;28;20189;-80
2022/07/28 09:09:32;;;;;;;0.57;0.57;;;24.30;99.90;;;;;;5069199;28;20742;-79
2022/07/28 09:12:02;;;;;;;0.83;0.80;;;24.20;99.90;;;;;;5065082;28;20323;-79
2022/07/28 09:14:27;;;;;;;0.20;0.20;;;23.60;99.90;;;;;;5069920;28;20192;-79
2022/07/28 09:16:53;;;;;;;0.53;0.53;;;23.90;99.90;;;;;;5061532;28;20193;-79
2022/07/28 09:19:19;;;;;;;1.20;0.53;;;24.50;99.90;;;;;;5067149;28;20493;-79
2022/07/28 09:21:44;;;;;;;1.87;0.87;;;24.90;99.90;;;;;;5071195;28;20282;-79
2022/07/28 09:24:30;;;;;;;0.40;0.40;;;24.60;99.90;;;;;;5064429;28;20269;-79
2022/07/28 09:27:00;;;;;;;0.30;0.30;;;24.50;99.90;;;;;;5067444;28;20177;-79
2022/07/28 09:29:25;;;;;;;2.10;1.80;;;24.90;99.90;;;;;;5058574;28;20186;-79
2022/07/28 09:31:51;;;;;;;0.40;0.40;;;25.40;99.90;;;;;;5087007;28;20219;-80
2022/07/28 09:34:17;;;;;;;0.40;0.40;;;24.90;99.90;;;;;;5068158;28;20204;-80
2022/07/28 09:36:43;;;;;;;1.27;0.70;;;24.30;99.90;;;;;;5068674;28;20192;-79
2022/07/28 09:39:09;;;;;;;0.50;0.50;;;24.30;99.90;;;;;;5071825;28;20226;-80
2022/07/28 09:41:48;;;;;;;0.50;0.50;;;24.00;99.90;;;;;;5070451;28;20209;-80
2022/07/28 09:44:18;;;;;;;0.30;0.30;;;24.20;99.90;;;;;;5066711;28;20189;-79
2022/07/28 09:46:44;;;;;;;0.30;0.30;;;24.40;99.90;;;;;;5061518;28;20694;-79
2022/07/28 09:49:10;;;;;;;0.30;0.30;;;24.20;99.90;;;;;;5063769;28;20343;-79
2022/07/28 09:51:36;;;;;;;0.87;0.87;;;24.90;99.90;;;;;;5061258;28;20197;-79
2022/07/28 09:54:12;;;;;;;0.50;0.50;;;24.30;99.90;;;;;;5087407;28;20181;-79
2022/07/28 09:56:42;;;;;;;0.40;0.40;;;24.40;99.90;;;;;;5084959;28;20181;-79
2022/07/28 09:59:08;;;;;;;0.60;0.60;;;25.40;99.90;;;;;;5066907;28;20185;-79
2022/07/28 10:02:00;;;;;;;0.20;0.20;;;26.10;99.90;;;;;;5069147;28;20295;-80
2022/07/28 10:04:30;;;;;;;1.03;0.77;;;26.20;99.90;;;;;;5067619;28;20177;-80
2022/07/28 10:07:10;;;;;;;0.47;0.47;;;26.00;99.90;;;;;;5064654;28;20263;-80
2022/07/28 10:09:37;;;;;;;0.93;0.50;;;26.40;99.90;;;;;;5068032;28;20239;-80
2022/07/28 10:12:23;;;;;;;0.60;0.60;;;26.00;99.90;;;;;;5066765;28;20196;-79
2022/07/28 10:14:50;;;;;;;2.00;0.47;;;25.10;99.90;;;;;;5066598;28;20192;-80
2022/07/28 10:17:29;;;;;;;0.37;0.37;;;25.10;99.90;;;;;;5063969;28;20181;-80
2022/07/28 10:20:05;;;;;;;0.50;0.50;;;25.50;99.90;;;;;;5068613;28;20183;-80
2022/07/28 10:22:37;;;;;;;0.40;0.40;;;25.90;99.90;;;;;;5063150;28;20209;-80
2022/07/28 10:25:14;;;;;;;0.47;0.47;;;26.40;99.90;;;;;;5065978;28;21848;-80
2022/07/28 10:27:41;;;;;;;0.67;0.67;;;26.80;99.90;;;;;;5081292;28;20229;-79
2022/07/28 10:30:07;;;;;;;0.77;0.77;;;26.60;99.90;;;;;;5066911;28;20184;-79
2022/07/28 10:32:40;;;;;;;0.37;0.37;;;26.10;99.90;;;;;;5069537;28;20215;-80
2022/07/28 10:35:13;;;;;;;1.00;0.83;;;26.20;99.90;;;;;;5071160;28;20177;-80
2022/07/28 10:37:58;;;;;;;0.30;0.30;;;26.80;99.90;;;;;;5067254;28;20279;-80
2022/07/28 10:40:30;;;;;;;0.50;0.50;;;26.20;99.90;;;;;;5083999;28;20772;-80
2022/07/28 10:42:57;;;;;;;0.40;0.40;;;25.60;99.90;;;;;;5066828;28;20213;-79
2022/07/28 10:45:23;;;;;;;0.80;0.80;;;25.80;99.90;;;;;;5066824;28;20176;-79
2022/07/28 10:47:49;;;;;;;0.57;0.50;;;25.50;99.90;;;;;;5064379;28;20718;-79
2022/07/28 10:50:15;;;;;;;0.33;0.33;;;25.50;99.90;;;;;;5079406;28;20330;-79
2022/07/28 10:52:41;;;;;;;2.43;0.50;;;25.50;99.90;;;;;;5064888;28;20180;-81
2022/07/28 10:55:35;;;;;;;0.83;0.77;;;25.40;99.90;;;;;;5068190;28;20189;-80
2022/07/28 10:58:20;;;;;;;1.20;1.10;;;25.60;99.90;;;;;;5064446;28;20213;-80
2022/07/28 11:00:48;;;;;;;0.63;0.63;;;25.60;99.90;;;;;;5065909;28;20212;-79
2022/07/28 11:03:32;;;;;;;0.30;0.30;;;25.60;99.90;;;;;;5065230;28;20215;-80
2022/07/28 11:06:18;;;;;;;0.63;0.40;;;26.30;99.90;;;;;;5076718;28;20224;-80
2022/07/28 11:08:44;;;;;;;1.03;0.57;;;26.80;99.90;;;;;;5066807;28;20265;-80
2022/07/28 11:11:09;;;;;;;0.30;0.30;;;26.40;99.90;;;;;;5071312;28;20240;-80
2022/07/28 11:13:35;;;;;;;0.40;0.40;;;26.40;99.90;;;;;;5069895;28;20193;-80
2022/07/28 11:16:13;;;;;;;0.70;0.70;;;25.90;99.90;;;;;;5075512;28;20246;-81
2022/07/28 11:19:01;;;;;;;3.50;0.53;;;25.70;99.90;;;;;;5073357;28;20189;-81
2022/07/28 11:21:26;;;;;;;0.67;0.53;;;26.10;99.90;;;;;;5092520;28;20204;-81
2022/07/28 11:23:55;;;;;;;1.00;0.83;;;26.80;99.90;;;;;;5074538;28;20196;-80
2022/07/28 11:26:24;;;;;;;0.40;0.40;;;26.70;99.90;;;;;;5075866;28;20181;-80
2022/07/28 11:28:59;;;;;;;0.70;0.70;;;26.80;99.90;;;;;;5066076;28;20650;-80
2022/07/28 11:31:42;;;;;;;0.57;0.53;;;27.00;99.90;;;;;;5069909;28;20764;-81
2022/07/28 11:34:09;;;;;;;1.27;1.13;;;26.50;99.90;;;;;;5073505;28;20189;-80
2022/07/28 11:36:56;;;;;;;0.67;0.60;;;26.80;99.90;;;;;;5075289;28;20525;-81
2022/07/28 11:39:24;;;;;;;0.70;0.70;;;27.40;99.90;;;;;;5076192;28;20176;-81
2022/07/28 11:41:50;;;;;;;1.07;0.63;;;26.90;99.90;;;;;;5079019;28;20211;-80
2022/07/28 11:44:30;;;;;;;0.33;0.33;;;27.00;99.90;;;;;;5078961;28;20181;-80
2022/07/28 11:47:30;;;;;;;0.43;0.40;;;27.60;99.90;;;;;;5074733;28;20184;-80
2022/07/28 11:50:15;;;;;;;0.67;0.60;;;27.50;99.90;;;;;;5044970;28;20192;-80
2022/07/28 11:52:55;;;;;;;0.30;0.30;;;28.00;99.90;;;;;;5076103;28;20217;-81
2022/07/28 11:55:21;;;;;;;0.50;0.40;;;27.10;99.90;;;;;;5074046;28;20200;-81
2022/07/28 11:57:46;;;;;;;0.57;0.53;;;27.30;99.90;;;;;;5077355;28;20629;-80
2022/07/28 12:00:20;;;;;;;0.27;0.27;;;27.20;99.90;;;;;;5077899;28;20720;-80
2022/07/28 12:02:45;;;;;;;0.50;0.50;;;27.00;99.90;;;;;;5074642;28;20224;-81
2022/07/28 12:05:13;;;;;;;0.37;0.37;;;27.70;99.90;;;;;;5078728;28;20193;-81
2022/07/28 12:07:40;;;;;;;2.50;0.37;;;27.90;99.90;;;;;;5073509;28;20173;-80
2022/07/28 12:10:32;;;;;;;0.33;0.33;;;27.90;99.90;;;;;;5076272;28;20173;-81
2022/07/28 12:13:03;;;;;;;0.70;0.70;;;27.60;99.90;;;;;;5067922;28;20181;-80
2022/07/28 12:15:29;;;;;;;0.60;0.60;;;27.60;99.90;;;;;;5068965;28;20260;-81
2022/07/28 12:17:56;;;;;;;1.03;0.60;;;27.60;99.90;;;;;;5073967;28;20472;-81
2022/07/28 12:20:21;;;;;;;0.60;0.60;;;28.30;99.90;;;;;;5078615;28;20204;-81
2022/07/28 12:23:02;;;;;;;1.13;0.82;;;28.60;99.90;;;;;;5090990;28;20291;-81
2022/07/28 12:25:28;;;;;;;0.40;0.40;;;27.90;99.90;;;;;;5074550;28;20179;-81
2022/07/28 12:27:54;;;;;;;0.40;0.40;;;27.70;99.90;;;;;;5072295;28;20185;-80
2022/07/28 12:30:23;;;;;;;1.00;0.90;;;28.60;99.90;;;;;;5076632;28;20197;-81
2022/07/28 12:32:48;;;;;;;0.70;0.70;;;27.80;99.90;;;;;;5070265;28;20240;-81
2022/07/28 12:35:14;;;;;;;0.60;0.60;;;27.70;99.90;;;;;;5062195;28;20190;-81
2022/07/28 12:37:42;;;;;;;0.55;0.55;;;27.80;99.90;;;;;;5074964;28;20674;-81
2022/07/28 12:40:11;;;;;;;0.50;0.50;;;28.30;99.90;;;;;;5072819;28;20267;-81
2022/07/28 12:42:37;;;;;;;0.70;0.70;;;28.40;99.90;;;;;;5074406;28;20220;-81
2022/07/28 12:45:04;;;;;;;0.50;0.50;;;29.00;99.90;;;;;;5073093;28;20181;-80
2022/07/28 12:47:30;;;;;;;0.40;0.40;;;29.00;99.90;;;;;;5073062;28;20232;-81
2022/07/28 12:50:17;;;;;;;0.70;0.70;;;29.00;99.90;;;;;;5073953;28;20567;-80
2022/07/28 12:53:00;;;;;;;0.50;0.50;;;29.70;99.90;;;;;;5087866;28;20180;-81
2022/07/28 12:55:28;;;;;;;0.52;0.40;;;28.80;99.90;;;;;;5070202;28;20188;-81
2022/07/28 12:57:53;;;;;;;0.60;0.55;;;28.20;99.90;;;;;;5070546;28;20242;-81
2022/07/28 13:00:22;;;;;;;0.98;0.68;;;27.50;99.90;;;;;;5077610;28;20212;-80
2022/07/28 13:02:50;;;;;;;0.40;0.40;;;27.70;99.90;;;;;;5075123;28;20235;-81